sensor_id;sensor_type;location;lat;lon;timestamp;pressure;altitude;pressure_sealevel;temperature;humidity
20105;BME280;10212;42.714;23.310;2023-01-25T00:03:01;96287.97;;;0.55;90.68
20105;BME280;10212;42.714;23.310;2023-01-25T00:13:01;96295.50;;;0.45;91.11
20105;BME280;10212;42.714;23.310;2023-01-25T00:23:02;96290.75;;;0.28;93.64
20105;BME280;10212;42.714;23.310;2023-01-25T00:43:15;96286.47;;;0.15;93.01
20105;BME280;10212;42.714;23.310;2023-01-25T00:53:15;96291.22;;;0.08;92.31
20105;BME280;10212;42.714;23.310;2023-01-25T01:03:15;96295.88;;;0.28;92.05
20105;BME280;10212;42.714;23.310;2023-01-25T01:13:16;96286.88;;;0.22;92.63
20105;BME280;10212;42.714;23.310;2023-01-25T01:23:16;96278.78;;;0.15;92.66
20105;BME280;10212;42.714;23.310;2023-01-25T01:33:17;96273.06;;;0.36;91.54
20105;BME280;10212;42.714;23.310;2023-01-25T01:43:23;96271.25;;;0.25;89.68
20105;BME280;10212;42.714;23.310;2023-01-25T01:53:24;96262.03;;;0.22;90.71
20105;BME280;10212;42.714;23.310;2023-01-25T02:03:25;96270.81;;;0.07;91.54
20105;BME280;10212;42.714;23.310;2023-01-25T02:13:27;96264.34;;;-0.23;92.91
20105;BME280;10212;42.714;23.310;2023-01-25T02:33:46;96264.66;;;-0.41;95.22
20105;BME280;10212;42.714;23.310;2023-01-25T02:43:47;96267.63;;;-0.34;94.55
20105;BME280;10212;42.714;23.310;2023-01-25T02:53:47;96254.19;;;-0.38;93.81
20105;BME280;10212;42.714;23.310;2023-01-25T03:03:47;96260.56;;;-0.31;93.73
20105;BME280;10212;42.714;23.310;2023-01-25T03:13:48;96258.47;;;-0.13;93.08
20105;BME280;10212;42.714;23.310;2023-01-25T03:23:57;96255.31;;;0.08;92.28
20105;BME280;10212;42.714;23.310;2023-01-25T03:33:58;96255.31;;;0.08;90.18
20105;BME280;10212;42.714;23.310;2023-01-25T03:43:59;96256.72;;;0.13;91.10
20105;BME280;10212;42.714;23.310;2023-01-25T03:53:59;96250.56;;;0.15;89.51
20105;BME280;10212;42.714;23.310;2023-01-25T04:04:00;96243.38;;;0.20;89.58
20105;BME280;10212;42.714;23.310;2023-01-25T04:14:00;96239.31;;;0.29;89.00
20105;BME280;10212;42.714;23.310;2023-01-25T04:24:00;96240.53;;;0.12;87.56
20105;BME280;10212;42.714;23.310;2023-01-25T04:34:01;96237.41;;;0.20;88.09
20105;BME280;10212;42.714;23.310;2023-01-25T04:44:01;96244.56;;;0.28;89.82
20105;BME280;10212;42.714;23.310;2023-01-25T04:54:02;96245.09;;;0.20;92.64
20105;BME280;10212;42.714;23.310;2023-01-25T05:04:02;96241.06;;;0.29;94.11
20105;BME280;10212;42.714;23.310;2023-01-25T05:14:03;96244.31;;;0.19;94.88
20105;BME280;10212;42.714;23.310;2023-01-25T05:24:03;96235.19;;;0.15;96.94
20105;BME280;10212;42.714;23.310;2023-01-25T05:34:04;96230.66;;;0.19;97.14
20105;BME280;10212;42.714;23.310;2023-01-25T05:44:04;96237.59;;;0.30;97.25
20105;BME280;10212;42.714;23.310;2023-01-25T05:54:05;96248.56;;;0.32;95.33
20105;BME280;10212;42.714;23.310;2023-01-25T06:04:06;96250.22;;;0.44;95.70
20105;BME280;10212;42.714;23.310;2023-01-25T06:14:06;96248.56;;;0.32;96.26
20105;BME280;10212;42.714;23.310;2023-01-25T06:24:07;96256.56;;;0.52;95.72
20105;BME280;10212;42.714;23.310;2023-01-25T06:34:08;96257.97;;;0.56;95.29
20105;BME280;10212;42.714;23.310;2023-01-25T06:44:08;96248.75;;;0.53;96.68
20105;BME280;10212;42.714;23.310;2023-01-25T06:54:09;96247.47;;;0.47;96.75
20105;BME280;10212;42.714;23.310;2023-01-25T07:04:10;96256.13;;;0.58;95.59
20105;BME280;10212;42.714;23.310;2023-01-25T07:14:13;96249.75;;;0.64;95.13
20105;BME280;10212;42.714;23.310;2023-01-25T07:24:15;96253.69;;;0.68;95.02
20105;BME280;10212;42.714;23.310;2023-01-25T07:34:17;96262.06;;;0.58;93.00
20105;BME280;10212;42.714;23.310;2023-01-25T07:44:17;96269.03;;;0.81;93.80
20105;BME280;10212;42.714;23.310;2023-01-25T07:54:17;96273.59;;;0.89;91.17
20105;BME280;10212;42.714;23.310;2023-01-25T08:04:18;96268.69;;;0.86;91.74
20105;BME280;10212;42.714;23.310;2023-01-25T08:14:18;96264.38;;;0.86;91.00
20105;BME280;10212;42.714;23.310;2023-01-25T08:24:19;96266.38;;;0.94;91.10
20105;BME280;10212;42.714;23.310;2023-01-25T08:34:19;96266.38;;;0.94;89.66
20105;BME280;10212;42.714;23.310;2023-01-25T08:44:20;96252.97;;;1.02;89.79
20105;BME280;10212;42.714;23.310;2023-01-25T08:54:23;96245.84;;;1.17;88.57
20105;BME280;10212;42.714;23.310;2023-01-25T09:04:23;96256.06;;;1.18;87.49
20105;BME280;10212;42.714;23.310;2023-01-25T09:14:27;96257.91;;;1.28;88.41
20105;BME280;10212;42.714;23.310;2023-01-25T09:24:27;96241.44;;;1.30;89.11
20105;BME280;10212;42.714;23.310;2023-01-25T09:34:28;96221.81;;;1.41;90.15
20105;BME280;10212;42.714;23.310;2023-01-25T09:54:47;96194.50;;;1.28;92.22
20105;BME280;10212;42.714;23.310;2023-01-25T10:04:49;96181.00;;;1.71;90.88
20105;BME280;10212;42.714;23.310;2023-01-25T10:14:53;96156.44;;;2.11;86.67
20105;BME280;10212;42.714;23.310;2023-01-25T10:25:16;96140.41;;;2.40;81.99
20105;BME280;10212;42.714;23.310;2023-01-25T10:35:21;96132.94;;;2.58;80.35
20105;BME280;10212;42.714;23.310;2023-01-25T10:45:22;96108.13;;;2.88;79.25
20105;BME280;10212;42.714;23.310;2023-01-25T10:55:23;96098.19;;;3.15;77.56
20105;BME280;10212;42.714;23.310;2023-01-25T11:05:29;96099.34;;;3.32;77.11
20105;BME280;10212;42.714;23.310;2023-01-25T11:15:30;96078.59;;;3.44;74.45
20105;BME280;10212;42.714;23.310;2023-01-25T11:25:32;96061.34;;;3.54;74.66
20105;BME280;10212;42.714;23.310;2023-01-25T11:35:34;96058.72;;;3.15;75.83
20105;BME280;10212;42.714;23.310;2023-01-25T11:46:01;96041.19;;;2.98;77.21
20105;BME280;10212;42.714;23.310;2023-01-25T12:37:17;95988.22;;;2.64;77.52
20105;BME280;10212;42.714;23.310;2023-01-25T12:47:29;95983.31;;;2.61;77.91
20105;BME280;10212;42.714;23.310;2023-01-25T13:07:57;95960.06;;;2.93;77.72
20105;BME280;10212;42.714;23.310;2023-01-25T13:28:41;95939.69;;;2.70;77.56
20105;BME280;10212;42.714;23.310;2023-01-25T13:38:44;95952.50;;;2.50;78.63
20105;BME280;10212;42.714;23.310;2023-01-25T13:48:53;95953.97;;;2.43;79.31
20105;BME280;10212;42.714;23.310;2023-01-25T13:58:56;95957.03;;;1.95;80.91
20105;BME280;10212;42.714;23.310;2023-01-25T14:09:02;95964.44;;;1.88;81.71
20105;BME280;10212;42.714;23.310;2023-01-25T14:19:27;95966.25;;;1.55;83.65
20105;BME280;10212;42.714;23.310;2023-01-25T14:29:32;95968.63;;;1.47;84.33
20105;BME280;10212;42.714;23.310;2023-01-25T14:39:36;95947.91;;;1.27;85.21
20105;BME280;10212;42.714;23.310;2023-01-25T14:49:36;95941.50;;;1.21;85.52
20105;BME280;10212;42.714;23.310;2023-01-25T14:59:44;95951.59;;;1.13;86.27
20105;BME280;10212;42.714;23.310;2023-01-25T15:10:13;95967.00;;;0.68;86.97
20105;BME280;10212;42.714;23.310;2023-01-25T15:30:28;95986.84;;;0.55;86.97
20105;BME280;10212;42.714;23.310;2023-01-25T15:40:28;95991.25;;;0.64;86.02
20105;BME280;10212;42.714;23.310;2023-01-25T15:50:30;95991.25;;;0.64;85.26
20105;BME280;10212;42.714;23.310;2023-01-25T16:00:30;95988.59;;;0.54;83.35
20105;BME280;10212;42.714;23.310;2023-01-25T16:10:31;95992.19;;;0.52;82.25
20105;BME280;10212;42.714;23.310;2023-01-25T16:20:32;95990.34;;;0.42;82.98
20105;BME280;10212;42.714;23.310;2023-01-25T16:30:33;95984.75;;;0.14;84.09
20105;BME280;10212;42.714;23.310;2023-01-25T16:40:35;95991.03;;;0.10;84.17
20105;BME280;10212;42.714;23.310;2023-01-25T16:50:38;95984.03;;;0.12;84.75
20105;BME280;10212;42.714;23.310;2023-01-25T17:00:39;95975.53;;;0.00;85.74
20105;BME280;10212;42.714;23.310;2023-01-25T17:10:40;95967.81;;;0.11;85.50
20105;BME280;10212;42.714;23.310;2023-01-25T17:20:41;95968.84;;;0.09;85.13
20105;BME280;10212;42.714;23.310;2023-01-25T17:30:42;95983.09;;;0.02;85.72
20105;BME280;10212;42.714;23.310;2023-01-25T17:40:43;95963.69;;;-0.14;84.75
20105;BME280;10212;42.714;23.310;2023-01-25T17:50:45;95959.97;;;-0.10;84.80
20105;BME280;10212;42.714;23.310;2023-01-25T18:00:45;95944.25;;;-0.05;86.48
20105;BME280;10212;42.714;23.310;2023-01-25T18:10:46;95929.25;;;0.02;86.56
20105;BME280;10212;42.714;23.310;2023-01-25T18:20:48;95935.25;;;-0.22;88.06
20105;BME280;10212;42.714;23.310;2023-01-25T18:30:57;95914.28;;;-0.28;88.65
20105;BME280;10212;42.714;23.310;2023-01-25T18:40:58;95927.69;;;-0.24;89.47
20105;BME280;10212;42.714;23.310;2023-01-25T18:51:11;95943.31;;;-0.27;89.33
20105;BME280;10212;42.714;23.310;2023-01-25T19:11:16;95930.78;;;-0.43;88.72
20105;BME280;10212;42.714;23.310;2023-01-25T19:21:22;95917.75;;;-0.40;89.23
20105;BME280;10212;42.714;23.310;2023-01-25T19:31:25;95899.94;;;-0.42;89.16
20105;BME280;10212;42.714;23.310;2023-01-25T19:41:28;95892.13;;;-0.40;89.57
20105;BME280;10212;42.714;23.310;2023-01-25T19:51:34;95895.88;;;-0.44;89.15
20105;BME280;10212;42.714;23.310;2023-01-25T20:01:36;95876.63;;;-0.50;89.58
20105;BME280;10212;42.714;23.310;2023-01-25T20:11:41;95865.56;;;-0.51;89.20
20105;BME280;10212;42.714;23.310;2023-01-25T20:21:41;95877.47;;;-0.50;89.03
20105;BME280;10212;42.714;23.310;2023-01-25T20:31:45;95871.00;;;-0.67;89.34
20105;BME280;10212;42.714;23.310;2023-01-25T20:41:48;95861.09;;;-0.60;90.17
20105;BME280;10212;42.714;23.310;2023-01-25T20:51:51;95856.13;;;-0.50;90.21
20105;BME280;10212;42.714;23.310;2023-01-25T21:01:51;95835.44;;;-0.83;91.64
20105;BME280;10212;42.714;23.310;2023-01-25T21:11:52;95820.91;;;-0.82;91.77
20105;BME280;10212;42.714;23.310;2023-01-25T21:21:52;95822.88;;;-0.86;91.72
20105;BME280;10212;42.714;23.310;2023-01-25T21:31:53;95814.34;;;-0.98;92.36
20105;BME280;10212;42.714;23.310;2023-01-25T21:41:53;95809.63;;;-0.80;91.47
20105;BME280;10212;42.714;23.310;2023-01-25T21:51:56;95801.00;;;-0.79;90.90
20105;BME280;10212;42.714;23.310;2023-01-25T22:01:59;95790.53;;;-0.76;90.47
20105;BME280;10212;42.714;23.310;2023-01-25T22:11:59;95773.06;;;-0.82;90.24
20105;BME280;10212;42.714;23.310;2023-01-25T22:22:01;95773.03;;;-0.93;90.21
20105;BME280;10212;42.714;23.310;2023-01-25T22:32:01;95761.41;;;-0.86;89.63
20105;BME280;10212;42.714;23.310;2023-01-25T22:42:02;95724.84;;;-0.88;89.31
20105;BME280;10212;42.714;23.310;2023-01-25T22:52:02;95707.97;;;-1.02;89.48
20105;BME280;10212;42.714;23.310;2023-01-25T23:02:03;95689.94;;;-1.01;88.73
20105;BME280;10212;42.714;23.310;2023-01-25T23:12:03;95699.72;;;-0.94;88.21
20105;BME280;10212;42.714;23.310;2023-01-25T23:22:04;95680.41;;;-1.10;89.05
20105;BME280;10212;42.714;23.310;2023-01-25T23:32:04;95679.47;;;-1.09;89.95
20105;BME280;10212;42.714;23.310;2023-01-25T23:42:05;95657.13;;;-1.30;90.38
20105;BME280;10212;42.714;23.310;2023-01-25T23:52:05;95649.19;;;-1.50;92.00
